Weather at Eliporto Militare

Public forecast

Using degrees Celsius for public forecast. Weather courtesy of forecast.io.

Closest aviation weather report (METAR) to Eliporto Militare

Closest report is Bari Karol Wojtyła Airport, 17.1 nm (31.7 km) ESE.

2024/05/24 00:50 (retrieved 27 minutes ago)

LIBD 240050Z AUTO 26005KT 9999 NCD 17/11 Q1017

Closest aviation forecast (TAF) to Eliporto Militare

Forecast is more than 6 hours old.

Closest forecast is Foggia "Gino Lisa" Airport, 41.0 nm (76.0 km) WNW.

2024/05/23 18:00 Ammendment (retrieved 7 hours ago)

TAF AMD LIBF 232110Z 2318/2418 CNL